sensor_id;sensor_type;location;lat;lon;timestamp;temperature;humidity
57088;DHT22;42965;52.846;6.614;2023-07-13T00:01:14;15.20;99.90
57088;DHT22;42965;52.846;6.614;2023-07-13T00:03:41;15.20;99.90
57088;DHT22;42965;52.846;6.614;2023-07-13T00:06:08;15.10;99.90
57088;DHT22;42965;52.846;6.614;2023-07-13T00:08:35;15.10;99.90
57088;DHT22;42965;52.846;6.614;2023-07-13T00:11:02;15.10;99.90
57088;DHT22;42965;52.846;6.614;2023-07-13T00:13:30;15.00;99.90
57088;DHT22;42965;52.846;6.614;2023-07-13T00:15:58;15.00;99.90
57088;DHT22;42965;52.846;6.614;2023-07-13T00:18:24;15.10;99.90
57088;DHT22;42965;52.846;6.614;2023-07-13T00:20:50;15.10;99.90
57088;DHT22;42965;52.846;6.614;2023-07-13T00:23:17;15.10;99.90
57088;DHT22;42965;52.846;6.614;2023-07-13T00:25:43;15.10;99.90
57088;DHT22;42965;52.846;6.614;2023-07-13T00:28:09;15.10;99.90
57088;DHT22;42965;52.846;6.614;2023-07-13T00:30:36;15.20;99.90
57088;DHT22;42965;52.846;6.614;2023-07-13T00:33:02;15.20;99.90
57088;DHT22;42965;52.846;6.614;2023-07-13T00:35:30;15.10;99.90
57088;DHT22;42965;52.846;6.614;2023-07-13T00:37:57;15.20;99.90
57088;DHT22;42965;52.846;6.614;2023-07-13T00:40:25;15.20;99.90
57088;DHT22;42965;52.846;6.614;2023-07-13T00:42:52;15.20;99.90
57088;DHT22;42965;52.846;6.614;2023-07-13T00:47:45;15.20;99.90
57088;DHT22;42965;52.846;6.614;2023-07-13T00:50:16;15.20;99.90
57088;DHT22;42965;52.846;6.614;2023-07-13T00:52:45;15.30;99.90
57088;DHT22;42965;52.846;6.614;2023-07-13T00:55:13;15.30;99.90
57088;DHT22;42965;52.846;6.614;2023-07-13T00:57:40;15.30;99.90
57088;DHT22;42965;52.846;6.614;2023-07-13T01:00:08;15.30;99.90
57088;DHT22;42965;52.846;6.614;2023-07-13T01:02:40;15.30;99.90
57088;DHT22;42965;52.846;6.614;2023-07-13T01:05:11;15.30;99.90
57088;DHT22;42965;52.846;6.614;2023-07-13T01:07:38;15.30;99.90
57088;DHT22;42965;52.846;6.614;2023-07-13T01:10:07;15.30;99.90
57088;DHT22;42965;52.846;6.614;2023-07-13T01:12:33;15.30;99.90
57088;DHT22;42965;52.846;6.614;2023-07-13T01:15:01;15.30;99.90
57088;DHT22;42965;52.846;6.614;2023-07-13T01:17:37;15.30;99.90
57088;DHT22;42965;52.846;6.614;2023-07-13T01:20:05;15.30;99.90
57088;DHT22;42965;52.846;6.614;2023-07-13T01:22:34;15.30;99.90
57088;DHT22;42965;52.846;6.614;2023-07-13T01:25:01;15.30;99.90
57088;DHT22;42965;52.846;6.614;2023-07-13T01:27:28;15.30;99.90
57088;DHT22;42965;52.846;6.614;2023-07-13T01:29:59;15.30;99.90
57088;DHT22;42965;52.846;6.614;2023-07-13T01:32:30;15.30;99.90
57088;DHT22;42965;52.846;6.614;2023-07-13T01:34:58;15.30;99.90
57088;DHT22;42965;52.846;6.614;2023-07-13T01:37:26;15.30;99.90
57088;DHT22;42965;52.846;6.614;2023-07-13T01:39:53;15.30;99.90
57088;DHT22;42965;52.846;6.614;2023-07-13T01:42:19;15.40;99.90
57088;DHT22;42965;52.846;6.614;2023-07-13T01:44:48;15.30;99.90
57088;DHT22;42965;52.846;6.614;2023-07-13T01:47:14;15.40;99.90
57088;DHT22;42965;52.846;6.614;2023-07-13T01:49:40;15.30;99.90
57088;DHT22;42965;52.846;6.614;2023-07-13T01:52:07;15.40;99.90
57088;DHT22;42965;52.846;6.614;2023-07-13T01:54:33;15.40;99.90
57088;DHT22;42965;52.846;6.614;2023-07-13T01:57:00;15.40;99.90
57088;DHT22;42965;52.846;6.614;2023-07-13T01:59:26;15.40;99.90
57088;DHT22;42965;52.846;6.614;2023-07-13T02:01:53;15.40;99.90
57088;DHT22;42965;52.846;6.614;2023-07-13T02:04:20;15.40;99.90
57088;DHT22;42965;52.846;6.614;2023-07-13T02:06:47;15.40;99.90
57088;DHT22;42965;52.846;6.614;2023-07-13T02:09:15;15.30;99.90
57088;DHT22;42965;52.846;6.614;2023-07-13T02:11:42;15.30;99.90
57088;DHT22;42965;52.846;6.614;2023-07-13T02:14:08;15.20;99.90
57088;DHT22;42965;52.846;6.614;2023-07-13T02:16:34;15.20;99.90
57088;DHT22;42965;52.846;6.614;2023-07-13T02:19:00;15.10;99.90
57088;DHT22;42965;52.846;6.614;2023-07-13T02:21:27;15.00;99.90
57088;DHT22;42965;52.846;6.614;2023-07-13T02:23:53;14.90;99.90
57088;DHT22;42965;52.846;6.614;2023-07-13T02:26:20;14.90;99.90
57088;DHT22;42965;52.846;6.614;2023-07-13T02:28:47;14.80;99.90
57088;DHT22;42965;52.846;6.614;2023-07-13T02:31:15;14.80;99.90
57088;DHT22;42965;52.846;6.614;2023-07-13T02:33:42;14.80;99.90
57088;DHT22;42965;52.846;6.614;2023-07-13T02:36:10;14.70;99.90
57088;DHT22;42965;52.846;6.614;2023-07-13T02:38:37;14.70;99.90
57088;DHT22;42965;52.846;6.614;2023-07-13T02:41:04;14.60;99.90
57088;DHT22;42965;52.846;6.614;2023-07-13T02:43:31;14.60;99.90
57088;DHT22;42965;52.846;6.614;2023-07-13T02:45:59;14.50;99.90
57088;DHT22;42965;52.846;6.614;2023-07-13T02:48:37;14.50;99.90
57088;DHT22;42965;52.846;6.614;2023-07-13T02:51:03;14.50;99.90
57088;DHT22;42965;52.846;6.614;2023-07-13T02:53:30;14.50;99.90
57088;DHT22;42965;52.846;6.614;2023-07-13T02:55:57;14.40;99.90
57088;DHT22;42965;52.846;6.614;2023-07-13T02:58:23;14.40;99.90
57088;DHT22;42965;52.846;6.614;2023-07-13T03:00:49;14.40;99.90
57088;DHT22;42965;52.846;6.614;2023-07-13T03:03:17;14.40;99.90
57088;DHT22;42965;52.846;6.614;2023-07-13T03:05:44;14.40;99.90
57088;DHT22;42965;52.846;6.614;2023-07-13T03:08:17;14.40;99.90
57088;DHT22;42965;52.846;6.614;2023-07-13T03:10:49;14.40;99.90
57088;DHT22;42965;52.846;6.614;2023-07-13T03:13:15;14.40;99.90
57088;DHT22;42965;52.846;6.614;2023-07-13T03:15:42;14.50;99.90
57088;DHT22;42965;52.846;6.614;2023-07-13T03:18:09;14.50;99.90
57088;DHT22;42965;52.846;6.614;2023-07-13T03:20:35;14.50;99.90
57088;DHT22;42965;52.846;6.614;2023-07-13T03:23:03;14.50;99.90
57088;DHT22;42965;52.846;6.614;2023-07-13T03:25:30;14.50;99.90
57088;DHT22;42965;52.846;6.614;2023-07-13T03:27:56;14.50;99.90
57088;DHT22;42965;52.846;6.614;2023-07-13T03:30:23;14.50;99.90
57088;DHT22;42965;52.846;6.614;2023-07-13T03:32:50;14.50;99.90
57088;DHT22;42965;52.846;6.614;2023-07-13T03:35:17;14.50;99.90
57088;DHT22;42965;52.846;6.614;2023-07-13T03:37:44;14.50;99.90
57088;DHT22;42965;52.846;6.614;2023-07-13T03:40:15;14.60;99.90
57088;DHT22;42965;52.846;6.614;2023-07-13T03:42:44;14.60;99.90
57088;DHT22;42965;52.846;6.614;2023-07-13T03:45:11;14.70;99.90
57088;DHT22;42965;52.846;6.614;2023-07-13T03:47:37;14.70;99.90
57088;DHT22;42965;52.846;6.614;2023-07-13T03:50:05;14.80;99.90
57088;DHT22;42965;52.846;6.614;2023-07-13T03:52:31;14.80;99.90
57088;DHT22;42965;52.846;6.614;2023-07-13T03:54:57;14.90;99.90
57088;DHT22;42965;52.846;6.614;2023-07-13T03:57:26;14.80;99.90
57088;DHT22;42965;52.846;6.614;2023-07-13T03:59:52;14.70;99.90
57088;DHT22;42965;52.846;6.614;2023-07-13T04:02:19;14.60;99.90
57088;DHT22;42965;52.846;6.614;2023-07-13T04:04:45;14.60;99.90
57088;DHT22;42965;52.846;6.614;2023-07-13T04:07:12;14.60;99.90
57088;DHT22;42965;52.846;6.614;2023-07-13T04:09:40;14.60;99.90
57088;DHT22;42965;52.846;6.614;2023-07-13T04:12:07;14.60;99.90
57088;DHT22;42965;52.846;6.614;2023-07-13T04:14:33;14.60;99.90
57088;DHT22;42965;52.846;6.614;2023-07-13T04:17:02;14.60;99.90
57088;DHT22;42965;52.846;6.614;2023-07-13T04:19:28;14.60;99.90
57088;DHT22;42965;52.846;6.614;2023-07-13T04:21:55;14.60;99.90
57088;DHT22;42965;52.846;6.614;2023-07-13T04:24:21;14.60;99.90
57088;DHT22;42965;52.846;6.614;2023-07-13T04:26:47;14.60;99.90
57088;DHT22;42965;52.846;6.614;2023-07-13T04:29:13;14.60;99.90
57088;DHT22;42965;52.846;6.614;2023-07-13T04:31:39;14.60;99.90
57088;DHT22;42965;52.846;6.614;2023-07-13T04:34:06;14.60;99.90
57088;DHT22;42965;52.846;6.614;2023-07-13T04:36:32;14.60;99.90
57088;DHT22;42965;52.846;6.614;2023-07-13T04:38:58;14.60;99.90
57088;DHT22;42965;52.846;6.614;2023-07-13T04:41:26;14.60;99.90
57088;DHT22;42965;52.846;6.614;2023-07-13T04:43:52;14.70;99.90
57088;DHT22;42965;52.846;6.614;2023-07-13T04:46:18;14.80;99.90
57088;DHT22;42965;52.846;6.614;2023-07-13T04:48:45;14.80;99.90
57088;DHT22;42965;52.846;6.614;2023-07-13T04:51:11;14.80;99.90
57088;DHT22;42965;52.846;6.614;2023-07-13T04:53:37;14.80;99.90
57088;DHT22;42965;52.846;6.614;2023-07-13T04:56:04;14.80;99.90
57088;DHT22;42965;52.846;6.614;2023-07-13T04:58:30;14.90;99.90
57088;DHT22;42965;52.846;6.614;2023-07-13T05:01:01;14.90;99.90
57088;DHT22;42965;52.846;6.614;2023-07-13T05:03:28;14.90;99.90
57088;DHT22;42965;52.846;6.614;2023-07-13T05:06:00;15.00;99.90
57088;DHT22;42965;52.846;6.614;2023-07-13T05:08:26;15.10;99.90
57088;DHT22;42965;52.846;6.614;2023-07-13T05:10:53;15.20;99.90
57088;DHT22;42965;52.846;6.614;2023-07-13T05:13:19;15.30;99.90
57088;DHT22;42965;52.846;6.614;2023-07-13T05:15:48;15.50;99.90
57088;DHT22;42965;52.846;6.614;2023-07-13T05:18:20;15.70;99.90
57088;DHT22;42965;52.846;6.614;2023-07-13T05:20:47;16.00;99.90
57088;DHT22;42965;52.846;6.614;2023-07-13T05:23:13;16.10;99.90
57088;DHT22;42965;52.846;6.614;2023-07-13T05:25:39;16.30;99.90
57088;DHT22;42965;52.846;6.614;2023-07-13T05:28:05;16.40;99.90
57088;DHT22;42965;52.846;6.614;2023-07-13T05:30:31;16.50;99.90
57088;DHT22;42965;52.846;6.614;2023-07-13T05:33:00;16.50;99.90
57088;DHT22;42965;52.846;6.614;2023-07-13T05:35:26;16.70;99.90
57088;DHT22;42965;52.846;6.614;2023-07-13T05:37:53;16.70;99.90
57088;DHT22;42965;52.846;6.614;2023-07-13T05:40:19;16.80;99.90
57088;DHT22;42965;52.846;6.614;2023-07-13T05:42:45;17.00;99.90
57088;DHT22;42965;52.846;6.614;2023-07-13T05:45:11;17.10;99.90
57088;DHT22;42965;52.846;6.614;2023-07-13T05:47:37;17.30;99.90
57088;DHT22;42965;52.846;6.614;2023-07-13T05:50:04;17.50;99.90
57088;DHT22;42965;52.846;6.614;2023-07-13T05:52:30;17.80;99.90
57088;DHT22;42965;52.846;6.614;2023-07-13T05:54:57;18.00;99.90
57088;DHT22;42965;52.846;6.614;2023-07-13T05:57:23;18.10;99.90
57088;DHT22;42965;52.846;6.614;2023-07-13T05:59:49;18.40;99.90
57088;DHT22;42965;52.846;6.614;2023-07-13T06:02:15;18.50;99.90
57088;DHT22;42965;52.846;6.614;2023-07-13T06:04:42;18.70;99.90
57088;DHT22;42965;52.846;6.614;2023-07-13T06:07:08;18.90;99.90
57088;DHT22;42965;52.846;6.614;2023-07-13T06:09:34;18.90;99.90
57088;DHT22;42965;52.846;6.614;2023-07-13T06:12:01;19.20;99.90
57088;DHT22;42965;52.846;6.614;2023-07-13T06:14:27;19.10;99.90
57088;DHT22;42965;52.846;6.614;2023-07-13T06:16:53;19.20;99.90
57088;DHT22;42965;52.846;6.614;2023-07-13T06:19:20;19.40;99.90
57088;DHT22;42965;52.846;6.614;2023-07-13T06:21:46;19.30;99.90
57088;DHT22;42965;52.846;6.614;2023-07-13T06:24:12;19.40;99.90
57088;DHT22;42965;52.846;6.614;2023-07-13T06:26:39;19.40;99.90
57088;DHT22;42965;52.846;6.614;2023-07-13T06:29:05;19.50;99.90
57088;DHT22;42965;52.846;6.614;2023-07-13T06:31:31;19.70;99.90
57088;DHT22;42965;52.846;6.614;2023-07-13T06:33:58;20.00;99.90
57088;DHT22;42965;52.846;6.614;2023-07-13T06:36:24;19.80;99.90
57088;DHT22;42965;52.846;6.614;2023-07-13T06:38:50;20.00;99.90
57088;DHT22;42965;52.846;6.614;2023-07-13T06:41:16;20.10;99.90
57088;DHT22;42965;52.846;6.614;2023-07-13T06:43:43;20.00;99.90
57088;DHT22;42965;52.846;6.614;2023-07-13T06:46:09;19.90;99.90
57088;DHT22;42965;52.846;6.614;2023-07-13T06:48:36;20.00;99.90
57088;DHT22;42965;52.846;6.614;2023-07-13T06:51:02;19.90;99.90
57088;DHT22;42965;52.846;6.614;2023-07-13T06:53:28;20.00;99.90
57088;DHT22;42965;52.846;6.614;2023-07-13T06:55:55;19.80;99.90
57088;DHT22;42965;52.846;6.614;2023-07-13T06:58:22;19.70;99.90
57088;DHT22;42965;52.846;6.614;2023-07-13T07:00:50;19.60;99.90
57088;DHT22;42965;52.846;6.614;2023-07-13T07:03:17;19.50;99.90
57088;DHT22;42965;52.846;6.614;2023-07-13T07:05:44;19.50;99.90
57088;DHT22;42965;52.846;6.614;2023-07-13T07:08:10;19.50;99.90
57088;DHT22;42965;52.846;6.614;2023-07-13T07:10:36;19.50;99.90
57088;DHT22;42965;52.846;6.614;2023-07-13T07:13:03;19.60;99.90
57088;DHT22;42965;52.846;6.614;2023-07-13T07:15:30;19.50;99.90
57088;DHT22;42965;52.846;6.614;2023-07-13T07:17:56;19.50;99.90
57088;DHT22;42965;52.846;6.614;2023-07-13T07:20:23;19.60;99.90
57088;DHT22;42965;52.846;6.614;2023-07-13T07:22:49;19.40;99.90
57088;DHT22;42965;52.846;6.614;2023-07-13T07:25:15;19.40;99.90
57088;DHT22;42965;52.846;6.614;2023-07-13T07:27:42;19.30;99.90
57088;DHT22;42965;52.846;6.614;2023-07-13T07:30:08;19.30;99.90
57088;DHT22;42965;52.846;6.614;2023-07-13T07:32:35;19.30;99.90
57088;DHT22;42965;52.846;6.614;2023-07-13T07:35:01;19.20;99.90
57088;DHT22;42965;52.846;6.614;2023-07-13T07:37:27;19.30;99.90
57088;DHT22;42965;52.846;6.614;2023-07-13T07:39:54;19.10;99.90
57088;DHT22;42965;52.846;6.614;2023-07-13T07:42:20;19.00;99.90
57088;DHT22;42965;52.846;6.614;2023-07-13T07:44:47;19.10;99.90
57088;DHT22;42965;52.846;6.614;2023-07-13T07:47:13;19.10;99.90
57088;DHT22;42965;52.846;6.614;2023-07-13T07:49:40;19.10;99.90
57088;DHT22;42965;52.846;6.614;2023-07-13T07:52:07;19.00;99.90
57088;DHT22;42965;52.846;6.614;2023-07-13T07:54:33;18.90;99.90
57088;DHT22;42965;52.846;6.614;2023-07-13T07:57:00;18.90;99.90
57088;DHT22;42965;52.846;6.614;2023-07-13T07:59:26;18.80;99.90
57088;DHT22;42965;52.846;6.614;2023-07-13T08:01:52;18.90;99.90
57088;DHT22;42965;52.846;6.614;2023-07-13T08:04:19;19.00;99.90
57088;DHT22;42965;52.846;6.614;2023-07-13T08:06:45;19.00;99.90
57088;DHT22;42965;52.846;6.614;2023-07-13T08:09:11;19.30;99.90
57088;DHT22;42965;52.846;6.614;2023-07-13T08:11:37;19.30;99.90
57088;DHT22;42965;52.846;6.614;2023-07-13T08:14:05;19.50;99.90
57088;DHT22;42965;52.846;6.614;2023-07-13T08:16:31;19.40;99.90
57088;DHT22;42965;52.846;6.614;2023-07-13T08:18:59;19.60;99.90
57088;DHT22;42965;52.846;6.614;2023-07-13T08:21:26;19.50;99.90
57088;DHT22;42965;52.846;6.614;2023-07-13T08:23:52;19.90;99.90
57088;DHT22;42965;52.846;6.614;2023-07-13T08:26:19;20.00;99.90
57088;DHT22;42965;52.846;6.614;2023-07-13T08:28:45;19.90;99.90
57088;DHT22;42965;52.846;6.614;2023-07-13T08:31:12;19.90;99.90
57088;DHT22;42965;52.846;6.614;2023-07-13T08:33:38;19.50;99.90
57088;DHT22;42965;52.846;6.614;2023-07-13T08:36:07;19.20;99.90
57088;DHT22;42965;52.846;6.614;2023-07-13T08:38:33;18.90;99.90
57088;DHT22;42965;52.846;6.614;2023-07-13T08:41:04;18.60;99.90
57088;DHT22;42965;52.846;6.614;2023-07-13T08:43:36;18.50;99.90
57088;DHT22;42965;52.846;6.614;2023-07-13T08:49:08;18.00;99.90
57088;DHT22;42965;52.846;6.614;2023-07-13T08:51:49;17.80;99.90
57088;DHT22;42965;52.846;6.614;2023-07-13T08:54:30;17.50;99.90
57088;DHT22;42965;52.846;6.614;2023-07-13T08:56:58;17.20;99.90
57088;DHT22;42965;52.846;6.614;2023-07-13T08:59:28;17.00;99.90
57088;DHT22;42965;52.846;6.614;2023-07-13T09:10:31;16.70;99.90
57088;DHT22;42965;52.846;6.614;2023-07-13T09:15:50;16.70;99.90
57088;DHT22;42965;52.846;6.614;2023-07-13T09:18:44;16.60;99.90
57088;DHT22;42965;52.846;6.614;2023-07-13T09:21:25;16.60;99.90
57088;DHT22;42965;52.846;6.614;2023-07-13T09:23:56;16.50;99.90
57088;DHT22;42965;52.846;6.614;2023-07-13T09:26:28;16.40;99.90
57088;DHT22;42965;52.846;6.614;2023-07-13T09:29:19;16.20;99.90
57088;DHT22;42965;52.846;6.614;2023-07-13T09:31:53;16.00;99.90
57088;DHT22;42965;52.846;6.614;2023-07-13T09:34:20;15.60;99.90
57088;DHT22;42965;52.846;6.614;2023-07-13T09:36:46;15.20;99.90
57088;DHT22;42965;52.846;6.614;2023-07-13T09:41:57;14.50;99.90
57088;DHT22;42965;52.846;6.614;2023-07-13T09:44:34;14.30;99.90
57088;DHT22;42965;52.846;6.614;2023-07-13T09:47:01;14.30;99.90
57088;DHT22;42965;52.846;6.614;2023-07-13T09:49:35;14.40;99.90
57088;DHT22;42965;52.846;6.614;2023-07-13T09:52:09;14.90;99.90
57088;DHT22;42965;52.846;6.614;2023-07-13T09:54:37;15.40;99.90
57088;DHT22;42965;52.846;6.614;2023-07-13T09:57:12;15.70;99.90
57088;DHT22;42965;52.846;6.614;2023-07-13T09:59:47;15.80;99.90
57088;DHT22;42965;52.846;6.614;2023-07-13T10:02:34;16.40;99.90
57088;DHT22;42965;52.846;6.614;2023-07-13T10:05:06;17.00;99.90
57088;DHT22;42965;52.846;6.614;2023-07-13T10:07:39;17.10;99.90
57088;DHT22;42965;52.846;6.614;2023-07-13T10:10:14;17.40;99.90
57088;DHT22;42965;52.846;6.614;2023-07-13T10:12:41;17.30;99.90
57088;DHT22;42965;52.846;6.614;2023-07-13T10:15:24;17.80;99.90
57088;DHT22;42965;52.846;6.614;2023-07-13T10:17:53;18.50;99.90
57088;DHT22;42965;52.846;6.614;2023-07-13T10:20:21;19.00;99.90
57088;DHT22;42965;52.846;6.614;2023-07-13T10:25:30;19.80;99.90
57088;DHT22;42965;52.846;6.614;2023-07-13T10:30:48;20.50;99.90
57088;DHT22;42965;52.846;6.614;2023-07-13T10:33:15;20.60;99.90
57088;DHT22;42965;52.846;6.614;2023-07-13T10:35:43;20.80;99.90
57088;DHT22;42965;52.846;6.614;2023-07-13T10:38:18;21.20;99.90
57088;DHT22;42965;52.846;6.614;2023-07-13T10:41:05;21.00;99.90
57088;DHT22;42965;52.846;6.614;2023-07-13T10:43:47;21.20;99.90
57088;DHT22;42965;52.846;6.614;2023-07-13T10:46:19;21.50;99.90
57088;DHT22;42965;52.846;6.614;2023-07-13T10:48:51;21.70;99.90
57088;DHT22;42965;52.846;6.614;2023-07-13T10:51:19;22.00;99.90
57088;DHT22;42965;52.846;6.614;2023-07-13T10:54:17;21.90;99.90
57088;DHT22;42965;52.846;6.614;2023-07-13T10:56:44;22.60;99.90
57088;DHT22;42965;52.846;6.614;2023-07-13T10:59:18;23.00;99.90
57088;DHT22;42965;52.846;6.614;2023-07-13T11:01:50;23.40;99.90
57088;DHT22;42965;52.846;6.614;2023-07-13T11:04:18;24.00;99.90
57088;DHT22;42965;52.846;6.614;2023-07-13T11:06:48;24.30;99.90
57088;DHT22;42965;52.846;6.614;2023-07-13T11:09:33;24.60;99.90
57088;DHT22;42965;52.846;6.614;2023-07-13T11:12:07;24.20;99.90
57088;DHT22;42965;52.846;6.614;2023-07-13T11:14:38;23.20;99.90
57088;DHT22;42965;52.846;6.614;2023-07-13T11:22:47;20.70;99.90
57088;DHT22;42965;52.846;6.614;2023-07-13T11:25:21;19.60;99.90
57088;DHT22;42965;52.846;6.614;2023-07-13T11:30:42;18.10;99.90
57088;DHT22;42965;52.846;6.614;2023-07-13T11:35:49;17.40;99.90
57088;DHT22;42965;52.846;6.614;2023-07-13T11:38:20;17.30;99.90
57088;DHT22;42965;52.846;6.614;2023-07-13T11:40:48;17.10;99.90
57088;DHT22;42965;52.846;6.614;2023-07-13T11:43:17;17.80;99.90
57088;DHT22;42965;52.846;6.614;2023-07-13T11:45:44;18.60;99.90
57088;DHT22;42965;52.846;6.614;2023-07-13T11:48:37;19.20;99.90
57088;DHT22;42965;52.846;6.614;2023-07-13T11:51:05;20.00;99.90
57088;DHT22;42965;52.846;6.614;2023-07-13T11:53:40;20.30;99.90
57088;DHT22;42965;52.846;6.614;2023-07-13T11:56:07;19.90;99.90
57088;DHT22;42965;52.846;6.614;2023-07-13T11:58:33;19.90;99.90
57088;DHT22;42965;52.846;6.614;2023-07-13T12:01:02;19.60;99.90
57088;DHT22;42965;52.846;6.614;2023-07-13T12:03:33;19.40;99.90
57088;DHT22;42965;52.846;6.614;2023-07-13T12:06:03;19.40;99.90
57088;DHT22;42965;52.846;6.614;2023-07-13T12:08:38;19.30;99.90
57088;DHT22;42965;52.846;6.614;2023-07-13T12:11:15;19.30;99.90
57088;DHT22;42965;52.846;6.614;2023-07-13T12:13:44;20.00;99.90
57088;DHT22;42965;52.846;6.614;2023-07-13T12:16:33;20.60;99.90
57088;DHT22;42965;52.846;6.614;2023-07-13T12:19:02;20.80;99.90
57088;DHT22;42965;52.846;6.614;2023-07-13T12:21:36;20.60;99.90
57088;DHT22;42965;52.846;6.614;2023-07-13T12:24:04;21.10;99.90
57088;DHT22;42965;52.846;6.614;2023-07-13T12:26:31;21.40;99.90
57088;DHT22;42965;52.846;6.614;2023-07-13T12:29:05;21.50;99.90
57088;DHT22;42965;52.846;6.614;2023-07-13T12:31:42;21.40;99.90
57088;DHT22;42965;52.846;6.614;2023-07-13T12:34:16;21.20;99.90
57088;DHT22;42965;52.846;6.614;2023-07-13T12:36:46;21.50;99.90
57088;DHT22;42965;52.846;6.614;2023-07-13T12:41:46;23.10;99.90
57088;DHT22;42965;52.846;6.614;2023-07-13T12:44:17;22.80;99.90
57088;DHT22;42965;52.846;6.614;2023-07-13T12:46:53;22.90;99.90
57088;DHT22;42965;52.846;6.614;2023-07-13T12:49:24;23.20;99.90
57088;DHT22;42965;52.846;6.614;2023-07-13T12:51:51;23.70;99.90
57088;DHT22;42965;52.846;6.614;2023-07-13T12:54:21;24.30;99.90
57088;DHT22;42965;52.846;6.614;2023-07-13T12:56:52;24.30;99.90
57088;DHT22;42965;52.846;6.614;2023-07-13T12:59:21;25.00;99.90
57088;DHT22;42965;52.846;6.614;2023-07-13T13:01:48;25.00;99.40
57088;DHT22;42965;52.846;6.614;2023-07-13T13:04:15;25.10;99.90
57088;DHT22;42965;52.846;6.614;2023-07-13T13:06:42;25.10;96.50
57088;DHT22;42965;52.846;6.614;2023-07-13T13:09:14;25.10;94.20
57088;DHT22;42965;52.846;6.614;2023-07-13T13:11:41;25.20;93.10
57088;DHT22;42965;52.846;6.614;2023-07-13T13:14:10;25.40;93.60
57088;DHT22;42965;52.846;6.614;2023-07-13T13:16:46;25.40;91.90
57088;DHT22;42965;52.846;6.614;2023-07-13T13:21:44;25.50;85.20
57088;DHT22;42965;52.846;6.614;2023-07-13T13:24:17;25.90;90.30
57088;DHT22;42965;52.846;6.614;2023-07-13T13:26:44;26.40;86.80
57088;DHT22;42965;52.846;6.614;2023-07-13T13:29:16;26.80;88.10
57088;DHT22;42965;52.846;6.614;2023-07-13T13:31:43;26.60;80.20
57088;DHT22;42965;52.846;6.614;2023-07-13T13:34:18;26.40;72.60
57088;DHT22;42965;52.846;6.614;2023-07-13T13:36:46;26.60;72.70
57088;DHT22;42965;52.846;6.614;2023-07-13T13:39:18;26.60;72.00
57088;DHT22;42965;52.846;6.614;2023-07-13T13:41:45;26.70;72.60
57088;DHT22;42965;52.846;6.614;2023-07-13T13:44:14;27.00;75.10
57088;DHT22;42965;52.846;6.614;2023-07-13T13:46:42;26.90;70.40
57088;DHT22;42965;52.846;6.614;2023-07-13T13:49:21;26.70;67.00
57088;DHT22;42965;52.846;6.614;2023-07-13T13:51:48;27.20;69.50
57088;DHT22;42965;52.846;6.614;2023-07-13T13:54:16;27.60;70.80
57088;DHT22;42965;52.846;6.614;2023-07-13T13:56:44;27.60;68.50
57088;DHT22;42965;52.846;6.614;2023-07-13T13:59:12;27.60;66.30
57088;DHT22;42965;52.846;6.614;2023-07-13T14:01:38;27.50;68.10
57088;DHT22;42965;52.846;6.614;2023-07-13T14:04:26;27.60;68.90
57088;DHT22;42965;52.846;6.614;2023-07-13T14:06:52;27.10;69.60
57088;DHT22;42965;52.846;6.614;2023-07-13T14:09:19;26.80;69.20
57088;DHT22;42965;52.846;6.614;2023-07-13T14:11:47;26.60;70.10
57088;DHT22;42965;52.846;6.614;2023-07-13T14:14:20;26.70;69.30
57088;DHT22;42965;52.846;6.614;2023-07-13T14:16:48;26.50;68.00
57088;DHT22;42965;52.846;6.614;2023-07-13T14:19:19;25.90;68.60
57088;DHT22;42965;52.846;6.614;2023-07-13T14:21:46;25.20;70.00
57088;DHT22;42965;52.846;6.614;2023-07-13T14:24:13;24.60;72.60
57088;DHT22;42965;52.846;6.614;2023-07-13T14:26:41;23.70;74.20
57088;DHT22;42965;52.846;6.614;2023-07-13T14:29:14;23.50;76.50
57088;DHT22;42965;52.846;6.614;2023-07-13T14:31:41;23.30;77.50
57088;DHT22;42965;52.846;6.614;2023-07-13T14:34:10;23.20;77.90
57088;DHT22;42965;52.846;6.614;2023-07-13T14:36:42;22.90;80.40
57088;DHT22;42965;52.846;6.614;2023-07-13T14:39:23;23.20;81.60
57088;DHT22;42965;52.846;6.614;2023-07-13T14:41:54;24.00;80.50
57088;DHT22;42965;52.846;6.614;2023-07-13T14:44:24;24.50;79.30
57088;DHT22;42965;52.846;6.614;2023-07-13T14:46:52;24.30;79.50
57088;DHT22;42965;52.846;6.614;2023-07-13T14:52:13;23.50;80.90
57088;DHT22;42965;52.846;6.614;2023-07-13T14:54:40;23.50;82.30
57088;DHT22;42965;52.846;6.614;2023-07-13T14:57:14;24.00;82.10
57088;DHT22;42965;52.846;6.614;2023-07-13T15:00:00;24.30;79.50
57088;DHT22;42965;52.846;6.614;2023-07-13T15:02:32;24.40;81.10
57088;DHT22;42965;52.846;6.614;2023-07-13T15:05:01;24.40;79.20
57088;DHT22;42965;52.846;6.614;2023-07-13T15:07:27;24.50;82.70
57088;DHT22;42965;52.846;6.614;2023-07-13T15:09:53;24.30;82.60
57088;DHT22;42965;52.846;6.614;2023-07-13T15:12:20;24.40;82.70
57088;DHT22;42965;52.846;6.614;2023-07-13T15:14:47;24.20;83.40
57088;DHT22;42965;52.846;6.614;2023-07-13T15:17:39;24.20;83.30
57088;DHT22;42965;52.846;6.614;2023-07-13T15:22:54;24.30;83.80
57088;DHT22;42965;52.846;6.614;2023-07-13T15:25:24;24.40;83.00
57088;DHT22;42965;52.846;6.614;2023-07-13T15:27:51;24.20;82.20
57088;DHT22;42965;52.846;6.614;2023-07-13T15:30:18;24.00;83.10
57088;DHT22;42965;52.846;6.614;2023-07-13T15:32:45;24.00;83.70
57088;DHT22;42965;52.846;6.614;2023-07-13T15:35:18;23.80;83.30
57088;DHT22;42965;52.846;6.614;2023-07-13T15:37:45;23.80;83.60
57088;DHT22;42965;52.846;6.614;2023-07-13T15:40:12;23.80;83.20
57088;DHT22;42965;52.846;6.614;2023-07-13T15:42:40;23.30;81.50
57088;DHT22;42965;52.846;6.614;2023-07-13T15:45:22;23.10;82.80
57088;DHT22;42965;52.846;6.614;2023-07-13T15:47:49;23.20;85.00
57088;DHT22;42965;52.846;6.614;2023-07-13T15:50:18;23.30;87.50
57088;DHT22;42965;52.846;6.614;2023-07-13T15:52:48;23.30;85.00
57088;DHT22;42965;52.846;6.614;2023-07-13T15:55:15;23.40;86.70
57088;DHT22;42965;52.846;6.614;2023-07-13T15:57:47;23.30;85.40
57088;DHT22;42965;52.846;6.614;2023-07-13T16:02:47;23.30;84.40
57088;DHT22;42965;52.846;6.614;2023-07-13T16:05:14;23.20;84.20
57088;DHT22;42965;52.846;6.614;2023-07-13T16:07:46;23.20;83.60
57088;DHT22;42965;52.846;6.614;2023-07-13T16:10:17;23.10;84.30
57088;DHT22;42965;52.846;6.614;2023-07-13T16:12:46;23.10;84.40
57088;DHT22;42965;52.846;6.614;2023-07-13T16:15:20;23.20;84.70
57088;DHT22;42965;52.846;6.614;2023-07-13T16:17:47;23.10;83.80
57088;DHT22;42965;52.846;6.614;2023-07-13T16:20:14;22.90;84.30
57088;DHT22;42965;52.846;6.614;2023-07-13T16:22:45;22.80;84.20
57088;DHT22;42965;52.846;6.614;2023-07-13T16:25:27;22.90;85.10
57088;DHT22;42965;52.846;6.614;2023-07-13T16:27:55;22.80;83.90
57088;DHT22;42965;52.846;6.614;2023-07-13T16:30:27;22.80;85.20